This is the latest recevied weather packets stored in our database for station/object OE3EMC-13. If no packets are shown the sender has not sent any weather packets the latest 10 day(s).
| Time | Temp. | Humidity | Pressure | Rain* | Wind** | Luminosity | Snow |
|---|---|---|---|---|---|---|---|
| 1777514592 | -5° C | 65% | 1100 hPa | 0 mm | - | - | - |
| 1777513991 | -4.44° C | 65% | 1100 hPa | 0 mm | - | - | - |
| 1777512190 | -3.89° C | 61% | 1100 hPa | 0 mm | - | - | - |
| 1777508594 | -1.11° C | 56% | 1100 hPa | 0 mm | - | - | - |
| 1777507394 | -1.11° C | 56% | 1100 hPa | 0 mm | - | - | - |
| 1777504995 | -0.56° C | 54% | 1100 hPa | 0 mm | - | - | - |
| 1777502593 | 0° C | 52% | 1100 hPa | 0 mm | - | - | - |
| 1777501992 | 0° C | 50% | 1100 hPa | 0 mm | - | - | - |
| 1777501394 | 0° C | 50% | 1100 hPa | 0 mm | - | - | - |
| 1777500793 | 0.56° C | 48% | 1100 hPa | 0 mm | - | - | - |
| 1777500192 | 0.56° C | 48% | 1100 hPa | 0 mm | - | - | - |
| 1777498992 | 1.11° C | 47% | 1100 hPa | 0 mm | - | - | - |
| 1777497791 | 1.67° C | 47% | 1100 hPa | 0 mm | - | - | - |
| 1777496591 | 1.67° C | 46% | 1100 hPa | 0 mm | - | - | - |
| 1777495991 | 2.22° C | 46% | 1100 hPa | 0 mm | - | - | - |
| 1777494790 | 2.22° C | 47% | 1100 hPa | 0 mm | - | - | - |
| 1777494190 | 2.22° C | 47% | 1100 hPa | 0 mm | - | - | - |
| 1777493592 | 2.78° C | 46% | 1100 hPa | 0 mm | - | - | - |
| 1777492990 | 2.78° C | 46% | 1100 hPa | 0 mm | - | - | - |
| 1777491190 | 3.89° C | 47% | 1100 hPa | 0 mm | - | - | - |
| 1777490590 | 3.89° C | 47% | 1100 hPa | 0 mm | - | - | - |
| 1777489990 | 4.44° C | 46% | 1100 hPa | 0 mm | - | - | - |
| 1777489395 | 4.44° C | 46% | 1100 hPa | 0 mm | - | - | - |
| 1777486995 | 6.67° C | 43% | 1100 hPa | 0 mm | - | - | - |
| 1777486394 | 7.78° C | 43% | 1100 hPa | 0 mm | - | - | - |
* Rain latest hour (hover to see other rain measurements)
** Current wind speed in m/s (hover to see current wind gust speed)